IKI weather

Iki Airport
Iki, Nagasaki Prefecture, Japan

Public forecast

Using degrees Celsius for public forecast. Weather courtesy of forecast.io.

METAR (pilot weather report)

Closest report is Fukuoka Airport, 34.7 nm (64.2 km) ESE. Retrieved 2019/05/21 03:30 UTC (28 minutes ago):

RJFF 210330Z 30010KT 250V340 CAVOK 21/08 Q1007 NOSIG

TAF (pilot weather forecast)

Forecast is more than 12 hours old.

Closest forecast is Fukuoka Airport, 34.7 nm (64.2 km) ESE. Retrieved 2019/05/20 00:31 UTC (1 day ago):

TAF RJFF 202306Z 2100/2206 31011KT 9999 FEW030 BECMG 2110/2112 15005KT BECMG 2200/2203 30012KT